sensor_id;sensor_type;location;lat;lon;timestamp;P1;durP1;ratioP1;P2;durP2;ratioP2
9536;SDS011;4807;48.024;11.726;2024-02-26T00:02:21;1.73;;;1.63;;
9536;SDS011;4807;48.024;11.726;2024-02-26T00:05:29;2.67;;;1.93;;
9536;SDS011;4807;48.024;11.726;2024-02-26T00:08:38;2.07;;;1.80;;
9536;SDS011;4807;48.024;11.726;2024-02-26T00:11:47;2.97;;;1.70;;
9536;SDS011;4807;48.024;11.726;2024-02-26T00:14:58;3.27;;;1.80;;
9536;SDS011;4807;48.024;11.726;2024-02-26T00:18:07;2.37;;;1.60;;
9536;SDS011;4807;48.024;11.726;2024-02-26T00:21:15;6.13;;;1.67;;
9536;SDS011;4807;48.024;11.726;2024-02-26T00:24:25;1.43;;;1.33;;
9536;SDS011;4807;48.024;11.726;2024-02-26T00:27:33;3.43;;;1.47;;
9536;SDS011;4807;48.024;11.726;2024-02-26T00:30:43;1.40;;;1.30;;
9536;SDS011;4807;48.024;11.726;2024-02-26T00:33:51;1.67;;;1.50;;
9536;SDS011;4807;48.024;11.726;2024-02-26T00:37:01;1.53;;;1.37;;
9536;SDS011;4807;48.024;11.726;2024-02-26T00:40:10;2.07;;;1.90;;
9536;SDS011;4807;48.024;11.726;2024-02-26T00:43:21;2.23;;;1.77;;
9536;SDS011;4807;48.024;11.726;2024-02-26T00:46:31;4.13;;;1.93;;
9536;SDS011;4807;48.024;11.726;2024-02-26T00:49:39;2.37;;;2.10;;
9536;SDS011;4807;48.024;11.726;2024-02-26T00:52:49;3.87;;;1.97;;
9536;SDS011;4807;48.024;11.726;2024-02-26T00:55:58;1.97;;;1.73;;
9536;SDS011;4807;48.024;11.726;2024-02-26T00:59:06;1.67;;;1.57;;
9536;SDS011;4807;48.024;11.726;2024-02-26T01:02:16;2.03;;;1.77;;
9536;SDS011;4807;48.024;11.726;2024-02-26T01:05:24;2.00;;;1.87;;
9536;SDS011;4807;48.024;11.726;2024-02-26T01:08:32;2.13;;;1.80;;
9536;SDS011;4807;48.024;11.726;2024-02-26T01:11:42;2.37;;;1.67;;
9536;SDS011;4807;48.024;11.726;2024-02-26T01:14:50;1.57;;;1.47;;
9536;SDS011;4807;48.024;11.726;2024-02-26T01:18:00;3.87;;;1.50;;
9536;SDS011;4807;48.024;11.726;2024-02-26T01:21:09;1.37;;;1.23;;
9536;SDS011;4807;48.024;11.726;2024-02-26T01:24:17;1.87;;;1.57;;
9536;SDS011;4807;48.024;11.726;2024-02-26T01:27:25;1.70;;;1.50;;
9536;SDS011;4807;48.024;11.726;2024-02-26T01:30:35;4.03;;;2.17;;
9536;SDS011;4807;48.024;11.726;2024-02-26T01:33:44;1.97;;;1.57;;
9536;SDS011;4807;48.024;11.726;2024-02-26T01:36:53;2.10;;;1.77;;
9536;SDS011;4807;48.024;11.726;2024-02-26T01:40:02;2.57;;;1.40;;
9536;SDS011;4807;48.024;11.726;2024-02-26T01:43:12;3.43;;;1.60;;
9536;SDS011;4807;48.024;11.726;2024-02-26T01:46:20;1.50;;;1.30;;
9536;SDS011;4807;48.024;11.726;2024-02-26T01:49:31;3.47;;;1.70;;
9536;SDS011;4807;48.024;11.726;2024-02-26T01:52:41;2.67;;;1.80;;
9536;SDS011;4807;48.024;11.726;2024-02-26T01:55:49;3.40;;;1.93;;
9536;SDS011;4807;48.024;11.726;2024-02-26T01:58:58;2.40;;;2.03;;
9536;SDS011;4807;48.024;11.726;2024-02-26T02:02:07;1.93;;;1.53;;
9536;SDS011;4807;48.024;11.726;2024-02-26T02:05:20;2.00;;;1.80;;
9536;SDS011;4807;48.024;11.726;2024-02-26T02:08:29;4.30;;;1.40;;
9536;SDS011;4807;48.024;11.726;2024-02-26T02:11:37;1.97;;;1.70;;
9536;SDS011;4807;48.024;11.726;2024-02-26T02:14:46;3.57;;;1.87;;
9536;SDS011;4807;48.024;11.726;2024-02-26T02:17:54;2.03;;;1.60;;
9536;SDS011;4807;48.024;11.726;2024-02-26T02:21:05;2.57;;;1.53;;
9536;SDS011;4807;48.024;11.726;2024-02-26T02:24:14;1.30;;;1.20;;
9536;SDS011;4807;48.024;11.726;2024-02-26T02:27:22;2.53;;;1.30;;
9536;SDS011;4807;48.024;11.726;2024-02-26T02:30:31;2.30;;;1.37;;
9536;SDS011;4807;48.024;11.726;2024-02-26T02:33:42;1.87;;;1.50;;
9536;SDS011;4807;48.024;11.726;2024-02-26T02:36:52;1.97;;;1.60;;
9536;SDS011;4807;48.024;11.726;2024-02-26T02:40:02;1.83;;;1.47;;
9536;SDS011;4807;48.024;11.726;2024-02-26T02:43:11;3.53;;;1.70;;
9536;SDS011;4807;48.024;11.726;2024-02-26T02:46:19;1.63;;;1.40;;
9536;SDS011;4807;48.024;11.726;2024-02-26T02:49:27;1.73;;;1.40;;
9536;SDS011;4807;48.024;11.726;2024-02-26T02:52:37;1.53;;;1.30;;
9536;SDS011;4807;48.024;11.726;2024-02-26T02:55:46;3.97;;;1.50;;
9536;SDS011;4807;48.024;11.726;2024-02-26T02:58:54;1.23;;;1.13;;
9536;SDS011;4807;48.024;11.726;2024-02-26T03:02:03;1.97;;;1.47;;
9536;SDS011;4807;48.024;11.726;2024-02-26T03:05:13;1.93;;;1.60;;
9536;SDS011;4807;48.024;11.726;2024-02-26T03:08:22;1.50;;;1.33;;
9536;SDS011;4807;48.024;11.726;2024-02-26T03:11:32;1.27;;;1.10;;
9536;SDS011;4807;48.024;11.726;2024-02-26T03:14:40;2.30;;;1.30;;
9536;SDS011;4807;48.024;11.726;2024-02-26T03:17:48;2.13;;;1.30;;
9536;SDS011;4807;48.024;11.726;2024-02-26T03:20:57;2.03;;;1.47;;
9536;SDS011;4807;48.024;11.726;2024-02-26T03:24:07;1.90;;;1.50;;
9536;SDS011;4807;48.024;11.726;2024-02-26T03:27:17;2.97;;;1.47;;
9536;SDS011;4807;48.024;11.726;2024-02-26T03:30:26;1.13;;;1.03;;
9536;SDS011;4807;48.024;11.726;2024-02-26T03:33:34;4.77;;;1.10;;
9536;SDS011;4807;48.024;11.726;2024-02-26T03:36:43;1.07;;;0.97;;
9536;SDS011;4807;48.024;11.726;2024-02-26T03:39:53;1.30;;;1.20;;
9536;SDS011;4807;48.024;11.726;2024-02-26T03:43:04;1.87;;;1.23;;
9536;SDS011;4807;48.024;11.726;2024-02-26T03:46:14;1.97;;;0.97;;
9536;SDS011;4807;48.024;11.726;2024-02-26T03:49:22;2.00;;;1.13;;
9536;SDS011;4807;48.024;11.726;2024-02-26T03:52:31;1.97;;;1.00;;
9536;SDS011;4807;48.024;11.726;2024-02-26T03:55:42;1.70;;;0.60;;
9536;SDS011;4807;48.024;11.726;2024-02-26T03:58:50;1.60;;;0.90;;
9536;SDS011;4807;48.024;11.726;2024-02-26T04:01:58;0.80;;;0.80;;
9536;SDS011;4807;48.024;11.726;2024-02-26T04:05:09;1.67;;;0.83;;
9536;SDS011;4807;48.024;11.726;2024-02-26T04:08:17;1.30;;;1.07;;
9536;SDS011;4807;48.024;11.726;2024-02-26T04:11:27;0.63;;;0.63;;
9536;SDS011;4807;48.024;11.726;2024-02-26T04:14:38;1.60;;;0.90;;
9536;SDS011;4807;48.024;11.726;2024-02-26T04:17:46;2.63;;;1.30;;
9536;SDS011;4807;48.024;11.726;2024-02-26T04:20:55;3.00;;;1.27;;
9536;SDS011;4807;48.024;11.726;2024-02-26T04:24:03;1.97;;;1.10;;
9536;SDS011;4807;48.024;11.726;2024-02-26T04:27:14;1.43;;;1.00;;
9536;SDS011;4807;48.024;11.726;2024-02-26T04:30:23;1.07;;;0.87;;
9536;SDS011;4807;48.024;11.726;2024-02-26T04:33:33;0.80;;;0.70;;
9536;SDS011;4807;48.024;11.726;2024-02-26T04:36:42;1.33;;;0.90;;
9536;SDS011;4807;48.024;11.726;2024-02-26T04:39:51;1.97;;;1.00;;
9536;SDS011;4807;48.024;11.726;2024-02-26T04:43:01;1.47;;;1.20;;
9536;SDS011;4807;48.024;11.726;2024-02-26T04:46:09;1.03;;;0.90;;
9536;SDS011;4807;48.024;11.726;2024-02-26T04:49:18;0.90;;;0.90;;
9536;SDS011;4807;48.024;11.726;2024-02-26T04:52:26;0.97;;;0.60;;
9536;SDS011;4807;48.024;11.726;2024-02-26T04:55:35;1.27;;;0.97;;
9536;SDS011;4807;48.024;11.726;2024-02-26T04:58:45;0.60;;;0.60;;
9536;SDS011;4807;48.024;11.726;2024-02-26T05:01:54;1.57;;;1.20;;
9536;SDS011;4807;48.024;11.726;2024-02-26T05:05:03;2.60;;;1.00;;
9536;SDS011;4807;48.024;11.726;2024-02-26T05:08:12;1.10;;;1.00;;
9536;SDS011;4807;48.024;11.726;2024-02-26T05:11:20;1.23;;;0.70;;
9536;SDS011;4807;48.024;11.726;2024-02-26T05:14:30;1.20;;;0.80;;
9536;SDS011;4807;48.024;11.726;2024-02-26T05:17:39;1.07;;;1.00;;
9536;SDS011;4807;48.024;11.726;2024-02-26T05:20:47;4.87;;;2.60;;
9536;SDS011;4807;48.024;11.726;2024-02-26T05:23:56;4.77;;;3.23;;
9536;SDS011;4807;48.024;11.726;2024-02-26T05:27:04;2.23;;;2.00;;
9536;SDS011;4807;48.024;11.726;2024-02-26T05:30:14;1.43;;;1.20;;
9536;SDS011;4807;48.024;11.726;2024-02-26T05:33:23;0.90;;;0.90;;
9536;SDS011;4807;48.024;11.726;2024-02-26T05:36:32;2.33;;;1.73;;
9536;SDS011;4807;48.024;11.726;2024-02-26T05:39:40;1.10;;;1.00;;
9536;SDS011;4807;48.024;11.726;2024-02-26T05:42:49;1.73;;;0.90;;
9536;SDS011;4807;48.024;11.726;2024-02-26T05:45:58;1.40;;;0.90;;
9536;SDS011;4807;48.024;11.726;2024-02-26T05:49:07;3.43;;;2.63;;
9536;SDS011;4807;48.024;11.726;2024-02-26T05:52:16;1.47;;;1.37;;
9536;SDS011;4807;48.024;11.726;2024-02-26T05:55:24;4.73;;;2.60;;
9536;SDS011;4807;48.024;11.726;2024-02-26T05:58:34;4.70;;;1.93;;
9536;SDS011;4807;48.024;11.726;2024-02-26T06:01:43;3.53;;;1.53;;
9536;SDS011;4807;48.024;11.726;2024-02-26T06:04:52;1.63;;;1.00;;
9536;SDS011;4807;48.024;11.726;2024-02-26T06:08:01;1.60;;;0.83;;
9536;SDS011;4807;48.024;11.726;2024-02-26T06:11:11;1.13;;;0.80;;
9536;SDS011;4807;48.024;11.726;2024-02-26T06:14:20;3.77;;;1.47;;
9536;SDS011;4807;48.024;11.726;2024-02-26T06:17:31;2.33;;;1.20;;
9536;SDS011;4807;48.024;11.726;2024-02-26T06:20:40;1.97;;;1.00;;
9536;SDS011;4807;48.024;11.726;2024-02-26T06:23:49;1.37;;;0.70;;
9536;SDS011;4807;48.024;11.726;2024-02-26T06:26:58;0.97;;;0.87;;
9536;SDS011;4807;48.024;11.726;2024-02-26T06:30:07;0.97;;;0.70;;
9536;SDS011;4807;48.024;11.726;2024-02-26T06:33:19;0.80;;;0.70;;
9536;SDS011;4807;48.024;11.726;2024-02-26T06:36:28;1.20;;;1.17;;
9536;SDS011;4807;48.024;11.726;2024-02-26T06:39:37;2.17;;;1.10;;
9536;SDS011;4807;48.024;11.726;2024-02-26T06:42:47;8.03;;;2.60;;
9536;SDS011;4807;48.024;11.726;2024-02-26T06:45:58;5.30;;;2.80;;
9536;SDS011;4807;48.024;11.726;2024-02-26T06:49:10;1.20;;;1.10;;
9536;SDS011;4807;48.024;11.726;2024-02-26T06:52:18;2.17;;;0.87;;
9536;SDS011;4807;48.024;11.726;2024-02-26T06:55:27;4.87;;;0.77;;
9536;SDS011;4807;48.024;11.726;2024-02-26T06:58:36;1.33;;;1.00;;
9536;SDS011;4807;48.024;11.726;2024-02-26T07:01:45;4.73;;;1.20;;
9536;SDS011;4807;48.024;11.726;2024-02-26T07:04:55;1.10;;;0.80;;
9536;SDS011;4807;48.024;11.726;2024-02-26T07:08:05;0.90;;;0.40;;
9536;SDS011;4807;48.024;11.726;2024-02-26T07:11:14;3.17;;;0.90;;
9536;SDS011;4807;48.024;11.726;2024-02-26T07:14:22;1.00;;;0.90;;
9536;SDS011;4807;48.024;11.726;2024-02-26T07:17:31;2.37;;;1.10;;
9536;SDS011;4807;48.024;11.726;2024-02-26T07:20:42;2.77;;;1.23;;
9536;SDS011;4807;48.024;11.726;2024-02-26T07:23:50;2.23;;;2.00;;
9536;SDS011;4807;48.024;11.726;2024-02-26T07:26:58;4.47;;;3.10;;
9536;SDS011;4807;48.024;11.726;2024-02-26T07:30:07;3.00;;;2.70;;
9536;SDS011;4807;48.024;11.726;2024-02-26T07:33:17;1.10;;;1.00;;
9536;SDS011;4807;48.024;11.726;2024-02-26T07:36:27;0.93;;;0.80;;
9536;SDS011;4807;48.024;11.726;2024-02-26T07:39:36;0.83;;;0.63;;
9536;SDS011;4807;48.024;11.726;2024-02-26T07:42:45;1.60;;;0.83;;
9536;SDS011;4807;48.024;11.726;2024-02-26T07:45:53;5.87;;;3.43;;
9536;SDS011;4807;48.024;11.726;2024-02-26T07:49:02;3.97;;;2.80;;
9536;SDS011;4807;48.024;11.726;2024-02-26T07:52:12;1.30;;;1.20;;
9536;SDS011;4807;48.024;11.726;2024-02-26T07:55:20;1.17;;;0.93;;
9536;SDS011;4807;48.024;11.726;2024-02-26T07:58:29;1.00;;;0.60;;
9536;SDS011;4807;48.024;11.726;2024-02-26T08:01:37;1.20;;;0.67;;
9536;SDS011;4807;48.024;11.726;2024-02-26T08:04:48;0.93;;;0.80;;
9536;SDS011;4807;48.024;11.726;2024-02-26T08:07:58;1.00;;;0.70;;
9536;SDS011;4807;48.024;11.726;2024-02-26T08:11:06;2.33;;;1.00;;
9536;SDS011;4807;48.024;11.726;2024-02-26T08:14:15;1.27;;;0.60;;
9536;SDS011;4807;48.024;11.726;2024-02-26T08:17:24;1.37;;;1.10;;
9536;SDS011;4807;48.024;11.726;2024-02-26T08:20:34;3.90;;;1.13;;
9536;SDS011;4807;48.024;11.726;2024-02-26T08:23:45;5.87;;;1.00;;
9536;SDS011;4807;48.024;11.726;2024-02-26T08:26:53;3.87;;;0.90;;
9536;SDS011;4807;48.024;11.726;2024-02-26T08:30:03;4.87;;;0.90;;
9536;SDS011;4807;48.024;11.726;2024-02-26T08:33:12;2.60;;;0.53;;
9536;SDS011;4807;48.024;11.726;2024-02-26T08:36:22;2.13;;;0.40;;
9536;SDS011;4807;48.024;11.726;2024-02-26T08:39:31;1.10;;;0.60;;
9536;SDS011;4807;48.024;11.726;2024-02-26T08:42:40;1.27;;;0.43;;
9536;SDS011;4807;48.024;11.726;2024-02-26T08:45:51;2.67;;;0.50;;
9536;SDS011;4807;48.024;11.726;2024-02-26T08:49:02;0.80;;;0.43;;
9536;SDS011;4807;48.024;11.726;2024-02-26T08:52:13;1.00;;;0.83;;
9536;SDS011;4807;48.024;11.726;2024-02-26T08:55:24;1.17;;;0.83;;
9536;SDS011;4807;48.024;11.726;2024-02-26T08:58:32;1.30;;;1.00;;
9536;SDS011;4807;48.024;11.726;2024-02-26T09:01:40;1.63;;;1.30;;
9536;SDS011;4807;48.024;11.726;2024-02-26T09:04:48;1.37;;;1.00;;
9536;SDS011;4807;48.024;11.726;2024-02-26T09:07:57;1.47;;;1.37;;
9536;SDS011;4807;48.024;11.726;2024-02-26T09:11:07;1.73;;;1.30;;
9536;SDS011;4807;48.024;11.726;2024-02-26T09:14:16;1.60;;;1.10;;
9536;SDS011;4807;48.024;11.726;2024-02-26T09:17:25;1.30;;;1.20;;
9536;SDS011;4807;48.024;11.726;2024-02-26T09:20:33;1.60;;;1.03;;
9536;SDS011;4807;48.024;11.726;2024-02-26T09:23:45;1.93;;;1.10;;
9536;SDS011;4807;48.024;11.726;2024-02-26T09:26:56;1.93;;;0.90;;
9536;SDS011;4807;48.024;11.726;2024-02-26T09:30:05;1.40;;;1.00;;
9536;SDS011;4807;48.024;11.726;2024-02-26T09:33:16;0.90;;;0.90;;
9536;SDS011;4807;48.024;11.726;2024-02-26T09:36:25;1.17;;;0.90;;
9536;SDS011;4807;48.024;11.726;2024-02-26T09:39:34;1.37;;;0.73;;
9536;SDS011;4807;48.024;11.726;2024-02-26T09:42:48;1.10;;;0.80;;
9536;SDS011;4807;48.024;11.726;2024-02-26T09:46:03;0.87;;;0.57;;
9536;SDS011;4807;48.024;11.726;2024-02-26T09:49:14;1.17;;;0.63;;
9536;SDS011;4807;48.024;11.726;2024-02-26T09:52:24;1.27;;;0.50;;
9536;SDS011;4807;48.024;11.726;2024-02-26T09:55:36;0.50;;;0.50;;
9536;SDS011;4807;48.024;11.726;2024-02-26T09:58:47;1.33;;;0.93;;
9536;SDS011;4807;48.024;11.726;2024-02-26T10:02:01;2.53;;;0.93;;
9536;SDS011;4807;48.024;11.726;2024-02-26T10:05:12;1.10;;;0.60;;
9536;SDS011;4807;48.024;11.726;2024-02-26T10:08:28;1.47;;;0.70;;
9536;SDS011;4807;48.024;11.726;2024-02-26T10:11:41;0.60;;;0.50;;
9536;SDS011;4807;48.024;11.726;2024-02-26T10:14:53;1.77;;;0.97;;
9536;SDS011;4807;48.024;11.726;2024-02-26T10:18:03;1.07;;;0.57;;
9536;SDS011;4807;48.024;11.726;2024-02-26T10:21:15;0.40;;;0.40;;
9536;SDS011;4807;48.024;11.726;2024-02-26T10:24:28;0.73;;;0.60;;
9536;SDS011;4807;48.024;11.726;2024-02-26T10:27:41;0.60;;;0.53;;
9536;SDS011;4807;48.024;11.726;2024-02-26T10:30:52;0.73;;;0.73;;
9536;SDS011;4807;48.024;11.726;2024-02-26T10:34:00;0.73;;;0.70;;
9536;SDS011;4807;48.024;11.726;2024-02-26T10:37:11;0.90;;;0.70;;
9536;SDS011;4807;48.024;11.726;2024-02-26T10:40:20;0.50;;;0.50;;
9536;SDS011;4807;48.024;11.726;2024-02-26T10:43:28;1.43;;;0.83;;
9536;SDS011;4807;48.024;11.726;2024-02-26T10:46:39;0.87;;;0.60;;
9536;SDS011;4807;48.024;11.726;2024-02-26T10:49:49;0.97;;;0.93;;
9536;SDS011;4807;48.024;11.726;2024-02-26T10:52:58;0.87;;;0.80;;
9536;SDS011;4807;48.024;11.726;2024-02-26T10:56:08;1.40;;;0.60;;
9536;SDS011;4807;48.024;11.726;2024-02-26T10:59:19;0.90;;;0.80;;
9536;SDS011;4807;48.024;11.726;2024-02-26T11:02:31;0.90;;;0.60;;
9536;SDS011;4807;48.024;11.726;2024-02-26T11:05:41;0.80;;;0.80;;
9536;SDS011;4807;48.024;11.726;2024-02-26T11:08:51;0.60;;;0.60;;
9536;SDS011;4807;48.024;11.726;2024-02-26T11:12:00;2.00;;;0.90;;
9536;SDS011;4807;48.024;11.726;2024-02-26T11:15:14;1.50;;;1.27;;
9536;SDS011;4807;48.024;11.726;2024-02-26T11:18:27;1.83;;;1.20;;
9536;SDS011;4807;48.024;11.726;2024-02-26T11:21:37;1.87;;;1.73;;
9536;SDS011;4807;48.024;11.726;2024-02-26T11:24:47;1.67;;;1.27;;
9536;SDS011;4807;48.024;11.726;2024-02-26T11:27:58;1.80;;;1.30;;
9536;SDS011;4807;48.024;11.726;2024-02-26T11:31:10;1.10;;;1.00;;
9536;SDS011;4807;48.024;11.726;2024-02-26T11:34:22;0.70;;;0.70;;
9536;SDS011;4807;48.024;11.726;2024-02-26T11:37:32;3.40;;;0.80;;
9536;SDS011;4807;48.024;11.726;2024-02-26T11:40:46;1.47;;;0.70;;
9536;SDS011;4807;48.024;11.726;2024-02-26T11:43:57;0.70;;;0.70;;
9536;SDS011;4807;48.024;11.726;2024-02-26T11:47:11;0.73;;;0.70;;
9536;SDS011;4807;48.024;11.726;2024-02-26T11:50:34;2.50;;;0.70;;
9536;SDS011;4807;48.024;11.726;2024-02-26T11:53:45;1.10;;;0.60;;
9536;SDS011;4807;48.024;11.726;2024-02-26T11:56:57;1.23;;;0.83;;
9536;SDS011;4807;48.024;11.726;2024-02-26T12:00:12;1.17;;;0.80;;
9536;SDS011;4807;48.024;11.726;2024-02-26T12:03:23;1.60;;;0.60;;
9536;SDS011;4807;48.024;11.726;2024-02-26T12:06:41;3.43;;;0.70;;
9536;SDS011;4807;48.024;11.726;2024-02-26T12:09:53;0.80;;;0.70;;
9536;SDS011;4807;48.024;11.726;2024-02-26T12:13:32;0.80;;;0.60;;
9536;SDS011;4807;48.024;11.726;2024-02-26T12:16:41;1.00;;;0.60;;
9536;SDS011;4807;48.024;11.726;2024-02-26T12:19:51;1.53;;;0.80;;
9536;SDS011;4807;48.024;11.726;2024-02-26T12:23:03;1.23;;;0.87;;
9536;SDS011;4807;48.024;11.726;2024-02-26T12:26:12;0.93;;;0.83;;
9536;SDS011;4807;48.024;11.726;2024-02-26T12:29:22;2.17;;;0.53;;
9536;SDS011;4807;48.024;11.726;2024-02-26T12:32:31;0.73;;;0.73;;
9536;SDS011;4807;48.024;11.726;2024-02-26T12:35:39;0.50;;;0.50;;
9536;SDS011;4807;48.024;11.726;2024-02-26T12:38:51;1.03;;;0.50;;
9536;SDS011;4807;48.024;11.726;2024-02-26T12:42:00;0.67;;;0.40;;
9536;SDS011;4807;48.024;11.726;2024-02-26T12:45:10;0.50;;;0.40;;
9536;SDS011;4807;48.024;11.726;2024-02-26T12:48:19;0.63;;;0.20;;
9536;SDS011;4807;48.024;11.726;2024-02-26T12:51:28;2.40;;;0.40;;
9536;SDS011;4807;48.024;11.726;2024-02-26T12:54:38;0.97;;;0.17;;
9536;SDS011;4807;48.024;11.726;2024-02-26T12:57:48;0.30;;;0.30;;
9536;SDS011;4807;48.024;11.726;2024-02-26T13:00:59;0.40;;;0.20;;
9536;SDS011;4807;48.024;11.726;2024-02-26T13:04:09;0.63;;;0.20;;
9536;SDS011;4807;48.024;11.726;2024-02-26T13:07:17;0.30;;;0.30;;
9536;SDS011;4807;48.024;11.726;2024-02-26T13:10:27;1.23;;;1.23;;
9536;SDS011;4807;48.024;11.726;2024-02-26T13:13:36;0.10;;;0.10;;
9536;SDS011;4807;48.024;11.726;2024-02-26T13:16:44;0.20;;;0.20;;
9536;SDS011;4807;48.024;11.726;2024-02-26T13:20:01;0.20;;;0.10;;
9536;SDS011;4807;48.024;11.726;2024-02-26T13:23:12;0.13;;;0.13;;
9536;SDS011;4807;48.024;11.726;2024-02-26T13:26:22;1.10;;;0.20;;
9536;SDS011;4807;48.024;11.726;2024-02-26T13:29:32;0.03;;;0.03;;
9536;SDS011;4807;48.024;11.726;2024-02-26T13:32:40;0.37;;;0.10;;
9536;SDS011;4807;48.024;11.726;2024-02-26T13:35:49;0.10;;;0.10;;
9536;SDS011;4807;48.024;11.726;2024-02-26T13:38:59;0.20;;;0.10;;
9536;SDS011;4807;48.024;11.726;2024-02-26T13:42:09;1.27;;;0.10;;
9536;SDS011;4807;48.024;11.726;2024-02-26T13:45:18;0.30;;;0.27;;
9536;SDS011;4807;48.024;11.726;2024-02-26T13:48:26;0.30;;;0.30;;
9536;SDS011;4807;48.024;11.726;2024-02-26T13:51:35;0.30;;;0.20;;
9536;SDS011;4807;48.024;11.726;2024-02-26T13:54:45;0.20;;;0.20;;
9536;SDS011;4807;48.024;11.726;2024-02-26T13:57:57;0.20;;;0.20;;
9536;SDS011;4807;48.024;11.726;2024-02-26T14:01:07;1.07;;;0.13;;
9536;SDS011;4807;48.024;11.726;2024-02-26T14:04:16;0.10;;;0.10;;
9536;SDS011;4807;48.024;11.726;2024-02-26T14:07:24;0.53;;;0.10;;
9536;SDS011;4807;48.024;11.726;2024-02-26T14:10:32;0.10;;;0.10;;
9536;SDS011;4807;48.024;11.726;2024-02-26T14:13:42;0.20;;;0.20;;
9536;SDS011;4807;48.024;11.726;2024-02-26T14:16:53;0.20;;;0.20;;
9536;SDS011;4807;48.024;11.726;2024-02-26T14:20:01;0.20;;;0.20;;
9536;SDS011;4807;48.024;11.726;2024-02-26T14:23:11;0.13;;;0.13;;
9536;SDS011;4807;48.024;11.726;2024-02-26T14:26:19;0.20;;;0.20;;
9536;SDS011;4807;48.024;11.726;2024-02-26T14:29:29;0.20;;;0.20;;
9536;SDS011;4807;48.024;11.726;2024-02-26T14:32:37;0.50;;;0.20;;
9536;SDS011;4807;48.024;11.726;2024-02-26T14:35:46;0.10;;;0.10;;
9536;SDS011;4807;48.024;11.726;2024-02-26T14:38:54;0.10;;;0.10;;
9536;SDS011;4807;48.024;11.726;2024-02-26T14:42:03;0.30;;;0.30;;
9536;SDS011;4807;48.024;11.726;2024-02-26T14:45:14;0.20;;;0.20;;
9536;SDS011;4807;48.024;11.726;2024-02-26T14:48:23;0.63;;;0.20;;
9536;SDS011;4807;48.024;11.726;2024-02-26T14:51:31;0.73;;;0.40;;
9536;SDS011;4807;48.024;11.726;2024-02-26T14:54:40;1.30;;;0.30;;
9536;SDS011;4807;48.024;11.726;2024-02-26T14:57:48;3.43;;;1.27;;
9536;SDS011;4807;48.024;11.726;2024-02-26T15:00:58;6.23;;;1.37;;
9536;SDS011;4807;48.024;11.726;2024-02-26T15:04:07;1.60;;;1.20;;
9536;SDS011;4807;48.024;11.726;2024-02-26T15:07:15;1.17;;;1.07;;
9536;SDS011;4807;48.024;11.726;2024-02-26T15:10:26;1.63;;;1.10;;
9536;SDS011;4807;48.024;11.726;2024-02-26T15:13:35;2.23;;;1.20;;
9536;SDS011;4807;48.024;11.726;2024-02-26T15:16:45;1.97;;;1.20;;
9536;SDS011;4807;48.024;11.726;2024-02-26T15:19:54;1.60;;;1.10;;
9536;SDS011;4807;48.024;11.726;2024-02-26T15:23:03;2.93;;;1.00;;
9536;SDS011;4807;48.024;11.726;2024-02-26T15:26:12;0.97;;;0.80;;
9536;SDS011;4807;48.024;11.726;2024-02-26T15:29:21;1.70;;;1.20;;
9536;SDS011;4807;48.024;11.726;2024-02-26T15:32:31;1.10;;;1.10;;
9536;SDS011;4807;48.024;11.726;2024-02-26T15:35:41;1.27;;;1.17;;
9536;SDS011;4807;48.024;11.726;2024-02-26T15:38:51;1.27;;;1.10;;
9536;SDS011;4807;48.024;11.726;2024-02-26T15:41:59;1.00;;;1.00;;
9536;SDS011;4807;48.024;11.726;2024-02-26T15:45:09;1.90;;;1.17;;
9536;SDS011;4807;48.024;11.726;2024-02-26T15:48:19;1.70;;;1.20;;
9536;SDS011;4807;48.024;11.726;2024-02-26T15:51:28;1.13;;;1.00;;
9536;SDS011;4807;48.024;11.726;2024-02-26T15:54:37;2.00;;;1.10;;
9536;SDS011;4807;48.024;11.726;2024-02-26T15:57:47;1.10;;;0.80;;
9536;SDS011;4807;48.024;11.726;2024-02-26T16:00:56;1.10;;;1.00;;
9536;SDS011;4807;48.024;11.726;2024-02-26T16:04:19;1.53;;;0.80;;
9536;SDS011;4807;48.024;11.726;2024-02-26T16:07:30;0.83;;;0.83;;
9536;SDS011;4807;48.024;11.726;2024-02-26T16:10:43;1.07;;;0.97;;
9536;SDS011;4807;48.024;11.726;2024-02-26T16:13:54;1.47;;;0.93;;
9536;SDS011;4807;48.024;11.726;2024-02-26T16:17:14;3.10;;;1.63;;
9536;SDS011;4807;48.024;11.726;2024-02-26T16:20:30;1.93;;;0.90;;
9536;SDS011;4807;48.024;11.726;2024-02-26T16:23:39;3.47;;;1.00;;
9536;SDS011;4807;48.024;11.726;2024-02-26T16:26:48;1.53;;;1.20;;
9536;SDS011;4807;48.024;11.726;2024-02-26T16:29:57;1.33;;;1.23;;
9536;SDS011;4807;48.024;11.726;2024-02-26T16:33:05;1.07;;;0.90;;
9536;SDS011;4807;48.024;11.726;2024-02-26T16:36:15;1.30;;;1.20;;
9536;SDS011;4807;48.024;11.726;2024-02-26T16:39:23;1.43;;;1.13;;
9536;SDS011;4807;48.024;11.726;2024-02-26T16:42:32;2.03;;;1.13;;
9536;SDS011;4807;48.024;11.726;2024-02-26T16:45:42;5.23;;;3.63;;
9536;SDS011;4807;48.024;11.726;2024-02-26T16:48:50;3.13;;;2.27;;
9536;SDS011;4807;48.024;11.726;2024-02-26T16:52:01;1.73;;;1.60;;
9536;SDS011;4807;48.024;11.726;2024-02-26T16:55:10;3.13;;;1.50;;
9536;SDS011;4807;48.024;11.726;2024-02-26T16:58:19;1.80;;;1.50;;
9536;SDS011;4807;48.024;11.726;2024-02-26T17:01:30;1.57;;;1.13;;
9536;SDS011;4807;48.024;11.726;2024-02-26T17:04:39;1.00;;;0.80;;
9536;SDS011;4807;48.024;11.726;2024-02-26T17:07:49;3.77;;;2.03;;
9536;SDS011;4807;48.024;11.726;2024-02-26T17:10:57;3.43;;;1.60;;
9536;SDS011;4807;48.024;11.726;2024-02-26T17:14:07;2.33;;;1.20;;
9536;SDS011;4807;48.024;11.726;2024-02-26T17:17:15;3.17;;;1.70;;
9536;SDS011;4807;48.024;11.726;2024-02-26T17:20:24;1.90;;;1.70;;
9536;SDS011;4807;48.024;11.726;2024-02-26T17:23:33;3.83;;;2.20;;
9536;SDS011;4807;48.024;11.726;2024-02-26T17:26:42;3.43;;;1.40;;
9536;SDS011;4807;48.024;11.726;2024-02-26T17:29:50;3.17;;;1.90;;
9536;SDS011;4807;48.024;11.726;2024-02-26T17:32:59;4.50;;;3.50;;
9536;SDS011;4807;48.024;11.726;2024-02-26T17:36:09;3.13;;;1.83;;
9536;SDS011;4807;48.024;11.726;2024-02-26T17:39:19;1.27;;;1.00;;
9536;SDS011;4807;48.024;11.726;2024-02-26T17:42:28;1.90;;;1.10;;
9536;SDS011;4807;48.024;11.726;2024-02-26T17:45:37;2.80;;;1.00;;
9536;SDS011;4807;48.024;11.726;2024-02-26T17:48:47;0.83;;;0.83;;
9536;SDS011;4807;48.024;11.726;2024-02-26T17:51:55;1.30;;;0.80;;
9536;SDS011;4807;48.024;11.726;2024-02-26T17:55:07;5.80;;;1.50;;
9536;SDS011;4807;48.024;11.726;2024-02-26T17:58:16;1.87;;;1.30;;
9536;SDS011;4807;48.024;11.726;2024-02-26T18:01:26;3.37;;;1.57;;
9536;SDS011;4807;48.024;11.726;2024-02-26T18:04:34;1.50;;;1.17;;
9536;SDS011;4807;48.024;11.726;2024-02-26T18:07:43;2.53;;;1.03;;
9536;SDS011;4807;48.024;11.726;2024-02-26T18:10:53;6.80;;;1.23;;
9536;SDS011;4807;48.024;11.726;2024-02-26T18:14:02;2.47;;;0.90;;
9536;SDS011;4807;48.024;11.726;2024-02-26T18:17:11;2.27;;;0.90;;
9536;SDS011;4807;48.024;11.726;2024-02-26T18:20:20;2.57;;;1.20;;
9536;SDS011;4807;48.024;11.726;2024-02-26T18:23:28;2.63;;;1.00;;
9536;SDS011;4807;48.024;11.726;2024-02-26T18:26:39;3.97;;;0.80;;
9536;SDS011;4807;48.024;11.726;2024-02-26T18:29:51;0.90;;;0.90;;
9536;SDS011;4807;48.024;11.726;2024-02-26T18:32:59;1.10;;;1.00;;
9536;SDS011;4807;48.024;11.726;2024-02-26T18:36:10;4.47;;;3.33;;
9536;SDS011;4807;48.024;11.726;2024-02-26T18:39:21;4.73;;;3.93;;
9536;SDS011;4807;48.024;11.726;2024-02-26T18:42:32;5.70;;;2.80;;
9536;SDS011;4807;48.024;11.726;2024-02-26T18:45:42;6.93;;;4.50;;
9536;SDS011;4807;48.024;11.726;2024-02-26T18:48:52;6.57;;;3.97;;
9536;SDS011;4807;48.024;11.726;2024-02-26T18:52:07;8.43;;;5.60;;
9536;SDS011;4807;48.024;11.726;2024-02-26T18:55:17;3.57;;;2.77;;
9536;SDS011;4807;48.024;11.726;2024-02-26T18:58:28;2.40;;;2.20;;
9536;SDS011;4807;48.024;11.726;2024-02-26T19:01:40;4.93;;;3.23;;
9536;SDS011;4807;48.024;11.726;2024-02-26T19:04:53;5.60;;;4.43;;
9536;SDS011;4807;48.024;11.726;2024-02-26T19:08:05;12.73;;;8.70;;
9536;SDS011;4807;48.024;11.726;2024-02-26T19:11:17;46.00;;;26.00;;
9536;SDS011;4807;48.024;11.726;2024-02-26T19:14:28;27.43;;;16.77;;
9536;SDS011;4807;48.024;11.726;2024-02-26T19:17:38;6.77;;;5.10;;
9536;SDS011;4807;48.024;11.726;2024-02-26T19:20:51;6.63;;;5.03;;